sensor_id;sensor_type;location;lat;lon;timestamp;temperature;humidity
16076;DHT22;8142;48.242;11.644;2022-12-16T00:01:52;1.70;99.90
16076;DHT22;8142;48.242;11.644;2022-12-16T00:04:18;1.70;99.90
16076;DHT22;8142;48.242;11.644;2022-12-16T00:06:44;1.70;99.90
16076;DHT22;8142;48.242;11.644;2022-12-16T00:09:10;1.70;99.90
16076;DHT22;8142;48.242;11.644;2022-12-16T00:11:36;1.70;99.90
16076;DHT22;8142;48.242;11.644;2022-12-16T00:14:02;1.70;99.90
16076;DHT22;8142;48.242;11.644;2022-12-16T00:16:28;1.70;99.90
16076;DHT22;8142;48.242;11.644;2022-12-16T00:18:53;1.70;99.90
16076;DHT22;8142;48.242;11.644;2022-12-16T00:21:19;1.80;99.90
16076;DHT22;8142;48.242;11.644;2022-12-16T00:23:45;1.80;99.90
16076;DHT22;8142;48.242;11.644;2022-12-16T00:26:12;1.80;99.90
16076;DHT22;8142;48.242;11.644;2022-12-16T00:28:39;1.80;99.90
16076;DHT22;8142;48.242;11.644;2022-12-16T00:31:05;1.80;99.90
16076;DHT22;8142;48.242;11.644;2022-12-16T00:33:31;1.90;99.90
16076;DHT22;8142;48.242;11.644;2022-12-16T00:35:57;1.90;99.90
16076;DHT22;8142;48.242;11.644;2022-12-16T00:38:25;1.90;99.90
16076;DHT22;8142;48.242;11.644;2022-12-16T00:40:51;1.90;99.90
16076;DHT22;8142;48.242;11.644;2022-12-16T00:43:17;1.90;99.90
16076;DHT22;8142;48.242;11.644;2022-12-16T00:45:45;1.90;99.90
16076;DHT22;8142;48.242;11.644;2022-12-16T00:48:11;1.90;99.90
16076;DHT22;8142;48.242;11.644;2022-12-16T00:50:37;2.00;99.90
16076;DHT22;8142;48.242;11.644;2022-12-16T00:53:03;2.00;99.90
16076;DHT22;8142;48.242;11.644;2022-12-16T00:55:29;2.00;99.90
16076;DHT22;8142;48.242;11.644;2022-12-16T00:57:55;2.00;99.90
16076;DHT22;8142;48.242;11.644;2022-12-16T01:00:21;2.00;99.90
16076;DHT22;8142;48.242;11.644;2022-12-16T01:02:49;2.00;99.90
16076;DHT22;8142;48.242;11.644;2022-12-16T01:05:17;2.00;99.90
16076;DHT22;8142;48.242;11.644;2022-12-16T01:07:46;2.00;99.90
16076;DHT22;8142;48.242;11.644;2022-12-16T01:10:12;2.00;99.90
16076;DHT22;8142;48.242;11.644;2022-12-16T01:12:38;1.90;99.90
16076;DHT22;8142;48.242;11.644;2022-12-16T01:15:06;1.90;99.90
16076;DHT22;8142;48.242;11.644;2022-12-16T01:17:33;1.90;99.90
16076;DHT22;8142;48.242;11.644;2022-12-16T01:20:00;1.90;99.90
16076;DHT22;8142;48.242;11.644;2022-12-16T01:22:29;1.80;99.90
16076;DHT22;8142;48.242;11.644;2022-12-16T01:24:55;1.90;99.90
16076;DHT22;8142;48.242;11.644;2022-12-16T01:27:21;1.90;99.90
16076;DHT22;8142;48.242;11.644;2022-12-16T01:29:47;1.80;99.90
16076;DHT22;8142;48.242;11.644;2022-12-16T01:32:13;1.80;99.90
16076;DHT22;8142;48.242;11.644;2022-12-16T01:34:39;1.80;99.90
16076;DHT22;8142;48.242;11.644;2022-12-16T01:37:05;1.80;99.90
16076;DHT22;8142;48.242;11.644;2022-12-16T01:39:31;1.80;99.90
16076;DHT22;8142;48.242;11.644;2022-12-16T01:41:57;1.80;99.90
16076;DHT22;8142;48.242;11.644;2022-12-16T01:44:25;1.80;99.90
16076;DHT22;8142;48.242;11.644;2022-12-16T01:46:59;1.80;99.90
16076;DHT22;8142;48.242;11.644;2022-12-16T01:49:29;1.70;99.90
16076;DHT22;8142;48.242;11.644;2022-12-16T01:52:02;1.70;99.90
16076;DHT22;8142;48.242;11.644;2022-12-16T01:54:36;1.80;99.90
16076;DHT22;8142;48.242;11.644;2022-12-16T01:57:07;1.70;99.90
16076;DHT22;8142;48.242;11.644;2022-12-16T01:59:36;1.70;99.90
16076;DHT22;8142;48.242;11.644;2022-12-16T02:02:04;1.70;99.90
16076;DHT22;8142;48.242;11.644;2022-12-16T02:04:30;1.70;99.90
16076;DHT22;8142;48.242;11.644;2022-12-16T02:06:57;1.70;99.90
16076;DHT22;8142;48.242;11.644;2022-12-16T02:09:23;1.80;99.90
16076;DHT22;8142;48.242;11.644;2022-12-16T02:12:05;1.80;99.90
16076;DHT22;8142;48.242;11.644;2022-12-16T02:15:04;1.80;99.90
16076;DHT22;8142;48.242;11.644;2022-12-16T02:17:37;1.80;99.90
16076;DHT22;8142;48.242;11.644;2022-12-16T02:20:25;1.80;99.90
16076;DHT22;8142;48.242;11.644;2022-12-16T02:34:20;1.70;99.90
16076;DHT22;8142;48.242;11.644;2022-12-16T02:37:13;1.70;99.90
16076;DHT22;8142;48.242;11.644;2022-12-16T02:39:52;1.70;99.90
16076;DHT22;8142;48.242;11.644;2022-12-16T02:42:28;1.60;99.90
16076;DHT22;8142;48.242;11.644;2022-12-16T02:45:32;1.60;99.90
16076;DHT22;8142;48.242;11.644;2022-12-16T02:47:59;1.60;99.90
16076;DHT22;8142;48.242;11.644;2022-12-16T02:52:54;1.60;99.90
16076;DHT22;8142;48.242;11.644;2022-12-16T02:55:24;1.60;99.90
16076;DHT22;8142;48.242;11.644;2022-12-16T02:58:13;1.50;99.90
16076;DHT22;8142;48.242;11.644;2022-12-16T03:03:52;1.50;99.90
16076;DHT22;8142;48.242;11.644;2022-12-16T03:06:21;1.40;99.90
16076;DHT22;8142;48.242;11.644;2022-12-16T03:08:52;1.40;99.90
16076;DHT22;8142;48.242;11.644;2022-12-16T03:11:19;1.40;99.90
16076;DHT22;8142;48.242;11.644;2022-12-16T03:13:49;1.30;99.90
16076;DHT22;8142;48.242;11.644;2022-12-16T03:16:18;1.30;99.90
16076;DHT22;8142;48.242;11.644;2022-12-16T03:18:50;1.30;99.90
16076;DHT22;8142;48.242;11.644;2022-12-16T03:21:21;1.30;99.90
16076;DHT22;8142;48.242;11.644;2022-12-16T03:23:56;1.20;99.90
16076;DHT22;8142;48.242;11.644;2022-12-16T03:26:38;1.20;99.90
16076;DHT22;8142;48.242;11.644;2022-12-16T03:29:12;1.20;99.90
16076;DHT22;8142;48.242;11.644;2022-12-16T03:31:45;1.20;99.90
16076;DHT22;8142;48.242;11.644;2022-12-16T03:34:20;1.20;99.90
16076;DHT22;8142;48.242;11.644;2022-12-16T03:36:53;1.20;99.90
16076;DHT22;8142;48.242;11.644;2022-12-16T03:39:21;1.20;99.90
16076;DHT22;8142;48.242;11.644;2022-12-16T03:41:50;1.20;99.90
16076;DHT22;8142;48.242;11.644;2022-12-16T03:44:22;1.20;99.90
16076;DHT22;8142;48.242;11.644;2022-12-16T03:46:48;1.20;99.90
16076;DHT22;8142;48.242;11.644;2022-12-16T03:49:14;1.20;99.90
16076;DHT22;8142;48.242;11.644;2022-12-16T03:51:39;1.10;99.90
16076;DHT22;8142;48.242;11.644;2022-12-16T03:54:05;1.10;99.90
16076;DHT22;8142;48.242;11.644;2022-12-16T03:56:31;1.10;99.90
16076;DHT22;8142;48.242;11.644;2022-12-16T03:58:57;1.10;99.90
16076;DHT22;8142;48.242;11.644;2022-12-16T04:01:23;1.10;99.90
16076;DHT22;8142;48.242;11.644;2022-12-16T04:03:49;1.00;99.90
16076;DHT22;8142;48.242;11.644;2022-12-16T04:06:15;1.00;99.90
16076;DHT22;8142;48.242;11.644;2022-12-16T04:08:45;0.90;99.90
16076;DHT22;8142;48.242;11.644;2022-12-16T04:11:14;0.70;99.90
16076;DHT22;8142;48.242;11.644;2022-12-16T04:13:59;0.60;99.90
16076;DHT22;8142;48.242;11.644;2022-12-16T04:16:44;0.50;99.90
16076;DHT22;8142;48.242;11.644;2022-12-16T04:19:32;0.30;99.90
16076;DHT22;8142;48.242;11.644;2022-12-16T04:22:29;0.20;99.90
16076;DHT22;8142;48.242;11.644;2022-12-16T04:25:21;0.00;99.90
16076;DHT22;8142;48.242;11.644;2022-12-16T04:27:48;-0.10;99.90
16076;DHT22;8142;48.242;11.644;2022-12-16T04:30:16;-0.20;99.90
16076;DHT22;8142;48.242;11.644;2022-12-16T04:32:55;-0.30;99.90
16076;DHT22;8142;48.242;11.644;2022-12-16T04:35:41;-0.30;99.90
16076;DHT22;8142;48.242;11.644;2022-12-16T04:38:25;-0.30;99.90
16076;DHT22;8142;48.242;11.644;2022-12-16T04:41:10;-0.40;99.90
16076;DHT22;8142;48.242;11.644;2022-12-16T04:43:54;-0.40;99.90
16076;DHT22;8142;48.242;11.644;2022-12-16T04:46:39;-0.50;99.90
16076;DHT22;8142;48.242;11.644;2022-12-16T04:49:23;-0.50;99.90
16076;DHT22;8142;48.242;11.644;2022-12-16T04:52:07;-0.50;99.90
16076;DHT22;8142;48.242;11.644;2022-12-16T04:54:52;-0.50;99.90
16076;DHT22;8142;48.242;11.644;2022-12-16T04:57:37;-0.50;99.90
16076;DHT22;8142;48.242;11.644;2022-12-16T05:00:22;-0.60;99.90
16076;DHT22;8142;48.242;11.644;2022-12-16T05:03:07;-0.60;99.90
16076;DHT22;8142;48.242;11.644;2022-12-16T05:05:51;-0.60;99.90
16076;DHT22;8142;48.242;11.644;2022-12-16T05:08:36;-0.60;99.90
16076;DHT22;8142;48.242;11.644;2022-12-16T05:11:20;-0.60;99.90
16076;DHT22;8142;48.242;11.644;2022-12-16T05:14:05;-0.50;99.90
16076;DHT22;8142;48.242;11.644;2022-12-16T05:16:49;-0.60;99.90
16076;DHT22;8142;48.242;11.644;2022-12-16T05:19:33;-0.60;99.90
16076;DHT22;8142;48.242;11.644;2022-12-16T05:22:18;-0.60;99.90
16076;DHT22;8142;48.242;11.644;2022-12-16T05:25:03;-0.60;99.90
16076;DHT22;8142;48.242;11.644;2022-12-16T05:27:51;-0.60;99.90
16076;DHT22;8142;48.242;11.644;2022-12-16T05:30:36;-0.60;99.90
16076;DHT22;8142;48.242;11.644;2022-12-16T05:33:20;-0.60;99.90
16076;DHT22;8142;48.242;11.644;2022-12-16T05:36:05;-0.50;99.90
16076;DHT22;8142;48.242;11.644;2022-12-16T05:38:50;-0.60;99.90
16076;DHT22;8142;48.242;11.644;2022-12-16T05:41:34;-0.50;99.90
16076;DHT22;8142;48.242;11.644;2022-12-16T05:44:19;-0.60;99.90
16076;DHT22;8142;48.242;11.644;2022-12-16T05:47:03;-0.60;99.90
16076;DHT22;8142;48.242;11.644;2022-12-16T05:49:47;-0.60;99.90
16076;DHT22;8142;48.242;11.644;2022-12-16T05:52:32;-0.60;99.90
16076;DHT22;8142;48.242;11.644;2022-12-16T05:55:16;-0.50;99.90
16076;DHT22;8142;48.242;11.644;2022-12-16T05:58:01;-0.60;99.90
16076;DHT22;8142;48.242;11.644;2022-12-16T06:00:45;-0.60;99.90
16076;DHT22;8142;48.242;11.644;2022-12-16T06:03:30;-0.60;99.90
16076;DHT22;8142;48.242;11.644;2022-12-16T06:06:14;-0.60;99.90
16076;DHT22;8142;48.242;11.644;2022-12-16T06:08:58;-0.60;99.90
16076;DHT22;8142;48.242;11.644;2022-12-16T06:11:43;-0.60;99.90
16076;DHT22;8142;48.242;11.644;2022-12-16T06:14:27;-0.60;99.90
16076;DHT22;8142;48.242;11.644;2022-12-16T06:17:12;-0.60;99.90
16076;DHT22;8142;48.242;11.644;2022-12-16T06:19:56;-0.50;99.90
16076;DHT22;8142;48.242;11.644;2022-12-16T06:22:41;-0.30;99.90
16076;DHT22;8142;48.242;11.644;2022-12-16T06:25:25;-0.20;99.90
16076;DHT22;8142;48.242;11.644;2022-12-16T06:28:09;-0.10;99.90
16076;DHT22;8142;48.242;11.644;2022-12-16T06:31:01;0.10;99.90
16076;DHT22;8142;48.242;11.644;2022-12-16T06:33:46;0.20;99.90
16076;DHT22;8142;48.242;11.644;2022-12-16T06:36:30;0.20;99.90
16076;DHT22;8142;48.242;11.644;2022-12-16T06:39:14;0.30;99.90
16076;DHT22;8142;48.242;11.644;2022-12-16T06:41:59;0.40;99.90
16076;DHT22;8142;48.242;11.644;2022-12-16T06:44:43;0.40;99.90
16076;DHT22;8142;48.242;11.644;2022-12-16T06:47:28;0.50;99.90
16076;DHT22;8142;48.242;11.644;2022-12-16T06:50:12;0.50;99.90
16076;DHT22;8142;48.242;11.644;2022-12-16T06:52:57;0.60;99.90
16076;DHT22;8142;48.242;11.644;2022-12-16T06:55:41;0.60;99.90
16076;DHT22;8142;48.242;11.644;2022-12-16T06:58:26;0.70;99.90
16076;DHT22;8142;48.242;11.644;2022-12-16T07:01:10;0.70;99.90
16076;DHT22;8142;48.242;11.644;2022-12-16T07:03:54;0.80;99.90
16076;DHT22;8142;48.242;11.644;2022-12-16T07:06:38;0.80;99.90
16076;DHT22;8142;48.242;11.644;2022-12-16T07:09:23;0.80;99.90
16076;DHT22;8142;48.242;11.644;2022-12-16T07:12:08;0.90;99.90
16076;DHT22;8142;48.242;11.644;2022-12-16T07:14:52;0.90;99.90
16076;DHT22;8142;48.242;11.644;2022-12-16T07:17:40;0.90;99.90
16076;DHT22;8142;48.242;11.644;2022-12-16T07:20:24;0.90;99.90
16076;DHT22;8142;48.242;11.644;2022-12-16T07:23:09;0.90;99.90
16076;DHT22;8142;48.242;11.644;2022-12-16T07:25:53;1.00;99.90
16076;DHT22;8142;48.242;11.644;2022-12-16T07:28:37;1.00;99.90
16076;DHT22;8142;48.242;11.644;2022-12-16T07:31:22;1.00;99.90
16076;DHT22;8142;48.242;11.644;2022-12-16T07:34:06;1.00;99.90
16076;DHT22;8142;48.242;11.644;2022-12-16T07:36:50;1.00;99.90
16076;DHT22;8142;48.242;11.644;2022-12-16T07:39:35;1.00;99.90
16076;DHT22;8142;48.242;11.644;2022-12-16T07:42:20;1.00;99.90
16076;DHT22;8142;48.242;11.644;2022-12-16T07:45:04;1.00;99.90
16076;DHT22;8142;48.242;11.644;2022-12-16T07:47:50;1.00;99.90
16076;DHT22;8142;48.242;11.644;2022-12-16T07:50:35;1.00;99.90
16076;DHT22;8142;48.242;11.644;2022-12-16T07:53:20;1.00;99.90
16076;DHT22;8142;48.242;11.644;2022-12-16T07:56:05;1.10;99.90
16076;DHT22;8142;48.242;11.644;2022-12-16T07:58:50;1.10;99.90
16076;DHT22;8142;48.242;11.644;2022-12-16T08:01:34;1.10;99.90
16076;DHT22;8142;48.242;11.644;2022-12-16T08:04:19;1.10;99.90
16076;DHT22;8142;48.242;11.644;2022-12-16T08:07:04;1.20;99.90
16076;DHT22;8142;48.242;11.644;2022-12-16T08:09:48;1.20;99.90
16076;DHT22;8142;48.242;11.644;2022-12-16T08:12:32;1.20;99.90
16076;DHT22;8142;48.242;11.644;2022-12-16T08:15:16;1.20;99.90
16076;DHT22;8142;48.242;11.644;2022-12-16T08:18:01;1.20;99.90
16076;DHT22;8142;48.242;11.644;2022-12-16T08:20:45;1.20;99.90
16076;DHT22;8142;48.242;11.644;2022-12-16T08:23:49;1.20;99.90
16076;DHT22;8142;48.242;11.644;2022-12-16T08:26:33;1.20;99.90
16076;DHT22;8142;48.242;11.644;2022-12-16T08:29:18;1.00;99.90
16076;DHT22;8142;48.242;11.644;2022-12-16T08:32:02;1.20;99.90
16076;DHT22;8142;48.242;11.644;2022-12-16T08:34:47;1.20;99.90
16076;DHT22;8142;48.242;11.644;2022-12-16T08:37:31;1.10;99.90
16076;DHT22;8142;48.242;11.644;2022-12-16T08:40:16;1.10;99.90
16076;DHT22;8142;48.242;11.644;2022-12-16T08:43:00;1.10;99.90
16076;DHT22;8142;48.242;11.644;2022-12-16T08:45:45;1.10;99.90
16076;DHT22;8142;48.242;11.644;2022-12-16T08:48:29;1.20;99.90
16076;DHT22;8142;48.242;11.644;2022-12-16T08:51:13;1.20;99.90
16076;DHT22;8142;48.242;11.644;2022-12-16T08:53:58;1.20;99.90
16076;DHT22;8142;48.242;11.644;2022-12-16T08:56:42;1.20;99.90
16076;DHT22;8142;48.242;11.644;2022-12-16T08:59:27;1.30;99.90
16076;DHT22;8142;48.242;11.644;2022-12-16T09:02:11;1.30;99.90
16076;DHT22;8142;48.242;11.644;2022-12-16T09:04:55;1.30;99.90
16076;DHT22;8142;48.242;11.644;2022-12-16T09:07:40;1.30;99.90
16076;DHT22;8142;48.242;11.644;2022-12-16T09:10:24;1.30;99.90
16076;DHT22;8142;48.242;11.644;2022-12-16T09:13:11;1.30;99.90
16076;DHT22;8142;48.242;11.644;2022-12-16T09:15:56;1.30;99.90
16076;DHT22;8142;48.242;11.644;2022-12-16T09:18:40;1.30;99.90
16076;DHT22;8142;48.242;11.644;2022-12-16T09:21:25;1.30;99.90
16076;DHT22;8142;48.242;11.644;2022-12-16T09:24:09;1.30;99.90
16076;DHT22;8142;48.242;11.644;2022-12-16T09:26:54;1.30;99.90
16076;DHT22;8142;48.242;11.644;2022-12-16T09:29:39;1.30;99.90
16076;DHT22;8142;48.242;11.644;2022-12-16T09:32:23;1.30;99.90
16076;DHT22;8142;48.242;11.644;2022-12-16T09:35:07;1.30;99.90
16076;DHT22;8142;48.242;11.644;2022-12-16T09:37:52;1.30;99.90
16076;DHT22;8142;48.242;11.644;2022-12-16T09:40:38;1.30;99.90
16076;DHT22;8142;48.242;11.644;2022-12-16T09:47:01;1.30;99.90
16076;DHT22;8142;48.242;11.644;2022-12-16T09:49:50;1.40;99.90
16076;DHT22;8142;48.242;11.644;2022-12-16T09:52:43;1.30;99.90
16076;DHT22;8142;48.242;11.644;2022-12-16T09:55:40;1.30;99.90
16076;DHT22;8142;48.242;11.644;2022-12-16T09:58:29;1.40;99.90
16076;DHT22;8142;48.242;11.644;2022-12-16T10:01:15;1.40;99.90
16076;DHT22;8142;48.242;11.644;2022-12-16T10:04:00;1.40;99.90
16076;DHT22;8142;48.242;11.644;2022-12-16T10:06:48;1.40;99.90
16076;DHT22;8142;48.242;11.644;2022-12-16T10:25:20;1.30;99.90
16076;DHT22;8142;48.242;11.644;2022-12-16T10:28:29;1.10;99.90
16076;DHT22;8142;48.242;11.644;2022-12-16T10:31:21;0.90;99.90
16076;DHT22;8142;48.242;11.644;2022-12-16T10:34:12;0.70;99.90
16076;DHT22;8142;48.242;11.644;2022-12-16T10:36:57;0.50;99.90
16076;DHT22;8142;48.242;11.644;2022-12-16T10:39:49;0.40;99.90
16076;DHT22;8142;48.242;11.644;2022-12-16T10:42:48;0.30;99.90
16076;DHT22;8142;48.242;11.644;2022-12-16T10:45:41;0.20;99.90
16076;DHT22;8142;48.242;11.644;2022-12-16T10:48:28;0.20;99.90
16076;DHT22;8142;48.242;11.644;2022-12-16T10:51:16;0.20;99.90
16076;DHT22;8142;48.242;11.644;2022-12-16T10:54:23;0.30;99.90
16076;DHT22;8142;48.242;11.644;2022-12-16T11:00:13;0.50;99.90
16076;DHT22;8142;48.242;11.644;2022-12-16T11:03:22;0.60;99.90
16076;DHT22;8142;48.242;11.644;2022-12-16T11:06:09;0.70;99.90
16076;DHT22;8142;48.242;11.644;2022-12-16T11:08:54;0.80;99.90
16076;DHT22;8142;48.242;11.644;2022-12-16T11:11:38;0.90;99.90
16076;DHT22;8142;48.242;11.644;2022-12-16T11:14:28;0.90;99.90
16076;DHT22;8142;48.242;11.644;2022-12-16T11:26:11;1.10;99.90
16076;DHT22;8142;48.242;11.644;2022-12-16T11:32:17;1.10;99.90
16076;DHT22;8142;48.242;11.644;2022-12-16T11:35:04;1.20;99.90
16076;DHT22;8142;48.242;11.644;2022-12-16T11:37:53;1.20;99.90
16076;DHT22;8142;48.242;11.644;2022-12-16T11:40:39;1.20;99.90
16076;DHT22;8142;48.242;11.644;2022-12-16T11:43:24;1.20;99.90
16076;DHT22;8142;48.242;11.644;2022-12-16T11:46:25;1.20;99.90
16076;DHT22;8142;48.242;11.644;2022-12-16T11:49:32;1.20;99.90
16076;DHT22;8142;48.242;11.644;2022-12-16T11:52:21;1.20;99.90
16076;DHT22;8142;48.242;11.644;2022-12-16T11:55:18;1.20;99.90
16076;DHT22;8142;48.242;11.644;2022-12-16T11:58:17;1.20;99.90
16076;DHT22;8142;48.242;11.644;2022-12-16T12:01:11;1.20;99.90
16076;DHT22;8142;48.242;11.644;2022-12-16T12:03:58;1.30;99.90
16076;DHT22;8142;48.242;11.644;2022-12-16T12:16:25;1.30;99.90
16076;DHT22;8142;48.242;11.644;2022-12-16T12:19:18;1.30;99.90
16076;DHT22;8142;48.242;11.644;2022-12-16T12:22:18;1.30;99.90
16076;DHT22;8142;48.242;11.644;2022-12-16T12:37:38;1.40;99.90
16076;DHT22;8142;48.242;11.644;2022-12-16T12:46:59;1.40;99.90
16076;DHT22;8142;48.242;11.644;2022-12-16T12:50:02;1.40;99.90
16076;DHT22;8142;48.242;11.644;2022-12-16T12:53:11;1.40;99.90
16076;DHT22;8142;48.242;11.644;2022-12-16T12:56:24;1.40;99.90
16076;DHT22;8142;48.242;11.644;2022-12-16T12:59:19;1.40;99.90
16076;DHT22;8142;48.242;11.644;2022-12-16T13:02:13;1.50;99.90
16076;DHT22;8142;48.242;11.644;2022-12-16T13:04:58;1.50;99.90
16076;DHT22;8142;48.242;11.644;2022-12-16T13:07:44;1.40;99.90
16076;DHT22;8142;48.242;11.644;2022-12-16T13:10:36;1.20;99.90
16076;DHT22;8142;48.242;11.644;2022-12-16T13:13:27;1.00;99.90
16076;DHT22;8142;48.242;11.644;2022-12-16T13:22:34;0.50;99.90
16076;DHT22;8142;48.242;11.644;2022-12-16T13:25:49;0.30;99.90
16076;DHT22;8142;48.242;11.644;2022-12-16T13:28:35;0.20;99.90
16076;DHT22;8142;48.242;11.644;2022-12-16T13:31:22;0.10;99.90
16076;DHT22;8142;48.242;11.644;2022-12-16T13:34:23;0.00;99.90
16076;DHT22;8142;48.242;11.644;2022-12-16T13:37:21;-0.10;99.90
16076;DHT22;8142;48.242;11.644;2022-12-16T13:40:17;-0.20;99.90
16076;DHT22;8142;48.242;11.644;2022-12-16T13:43:03;-0.20;99.90
16076;DHT22;8142;48.242;11.644;2022-12-16T13:46:12;-0.20;99.90
16076;DHT22;8142;48.242;11.644;2022-12-16T14:04:33;-0.30;99.90
16076;DHT22;8142;48.242;11.644;2022-12-16T14:07:21;-0.40;99.90
16076;DHT22;8142;48.242;11.644;2022-12-16T14:10:24;-0.40;99.90
16076;DHT22;8142;48.242;11.644;2022-12-16T14:13:30;-0.40;99.90
16076;DHT22;8142;48.242;11.644;2022-12-16T14:22:29;-0.50;99.90
16076;DHT22;8142;48.242;11.644;2022-12-16T14:25:20;-0.60;99.90
16076;DHT22;8142;48.242;11.644;2022-12-16T14:31:21;-0.60;99.90
16076;DHT22;8142;48.242;11.644;2022-12-16T14:37:21;-0.70;99.90
16076;DHT22;8142;48.242;11.644;2022-12-16T14:40:20;-0.70;99.90
16076;DHT22;8142;48.242;11.644;2022-12-16T14:43:13;-0.70;99.90
16076;DHT22;8142;48.242;11.644;2022-12-16T14:45:58;-0.70;99.90
16076;DHT22;8142;48.242;11.644;2022-12-16T14:48:46;-0.80;99.90
16076;DHT22;8142;48.242;11.644;2022-12-16T14:54:34;-0.70;99.90
16076;DHT22;8142;48.242;11.644;2022-12-16T14:57:24;-0.70;99.90
16076;DHT22;8142;48.242;11.644;2022-12-16T15:00:11;-0.50;99.90
16076;DHT22;8142;48.242;11.644;2022-12-16T15:05:56;-0.40;99.90
16076;DHT22;8142;48.242;11.644;2022-12-16T15:08:53;-0.30;99.90
16076;DHT22;8142;48.242;11.644;2022-12-16T15:11:40;-0.20;99.90
16076;DHT22;8142;48.242;11.644;2022-12-16T15:14:33;-0.10;99.90
16076;DHT22;8142;48.242;11.644;2022-12-16T15:17:35;0.00;99.90
16076;DHT22;8142;48.242;11.644;2022-12-16T15:20:27;0.00;99.90
16076;DHT22;8142;48.242;11.644;2022-12-16T15:23:25;0.00;99.90
16076;DHT22;8142;48.242;11.644;2022-12-16T15:26:22;0.10;99.90
16076;DHT22;8142;48.242;11.644;2022-12-16T15:29:44;0.10;99.90
16076;DHT22;8142;48.242;11.644;2022-12-16T15:32:34;0.20;99.90
16076;DHT22;8142;48.242;11.644;2022-12-16T15:35:31;0.20;99.90
16076;DHT22;8142;48.242;11.644;2022-12-16T15:38:34;0.20;99.90
16076;DHT22;8142;48.242;11.644;2022-12-16T15:41:33;0.20;99.90
16076;DHT22;8142;48.242;11.644;2022-12-16T15:47:05;0.30;99.90
16076;DHT22;8142;48.242;11.644;2022-12-16T15:49:50;0.30;99.90
16076;DHT22;8142;48.242;11.644;2022-12-16T15:52:43;0.30;99.90
16076;DHT22;8142;48.242;11.644;2022-12-16T15:58:15;0.30;99.90
16076;DHT22;8142;48.242;11.644;2022-12-16T16:01:02;0.30;99.90
16076;DHT22;8142;48.242;11.644;2022-12-16T16:03:51;0.30;99.90
16076;DHT22;8142;48.242;11.644;2022-12-16T16:06:37;0.30;99.90
16076;DHT22;8142;48.242;11.644;2022-12-16T16:09:27;0.40;99.90
16076;DHT22;8142;48.242;11.644;2022-12-16T16:12:14;0.40;99.90
16076;DHT22;8142;48.242;11.644;2022-12-16T16:14:58;0.40;99.90
16076;DHT22;8142;48.242;11.644;2022-12-16T16:17:43;0.50;99.90
16076;DHT22;8142;48.242;11.644;2022-12-16T16:20:28;0.50;99.90
16076;DHT22;8142;48.242;11.644;2022-12-16T16:23:13;0.50;99.90
16076;DHT22;8142;48.242;11.644;2022-12-16T16:25:57;0.50;99.90
16076;DHT22;8142;48.242;11.644;2022-12-16T16:28:42;0.60;99.90
16076;DHT22;8142;48.242;11.644;2022-12-16T16:31:26;0.50;99.90
16076;DHT22;8142;48.242;11.644;2022-12-16T16:34:11;0.50;99.90
16076;DHT22;8142;48.242;11.644;2022-12-16T16:36:57;0.50;99.90
16076;DHT22;8142;48.242;11.644;2022-12-16T16:39:42;0.60;99.90
16076;DHT22;8142;48.242;11.644;2022-12-16T16:42:27;0.50;99.90
16076;DHT22;8142;48.242;11.644;2022-12-16T16:45:12;0.60;99.90
16076;DHT22;8142;48.242;11.644;2022-12-16T16:48:10;0.50;99.90
16076;DHT22;8142;48.242;11.644;2022-12-16T16:50:56;0.60;99.90
16076;DHT22;8142;48.242;11.644;2022-12-16T16:53:41;0.50;99.90
16076;DHT22;8142;48.242;11.644;2022-12-16T16:56:26;0.50;99.90
16076;DHT22;8142;48.242;11.644;2022-12-16T16:59:12;0.50;99.90
16076;DHT22;8142;48.242;11.644;2022-12-16T17:01:57;0.50;99.90
16076;DHT22;8142;48.242;11.644;2022-12-16T17:04:41;0.50;99.90
16076;DHT22;8142;48.242;11.644;2022-12-16T17:07:25;0.60;99.90
16076;DHT22;8142;48.242;11.644;2022-12-16T17:10:10;0.60;99.90
16076;DHT22;8142;48.242;11.644;2022-12-16T17:12:55;0.60;99.90
16076;DHT22;8142;48.242;11.644;2022-12-16T17:15:39;0.60;99.90
16076;DHT22;8142;48.242;11.644;2022-12-16T17:18:24;0.60;99.90
16076;DHT22;8142;48.242;11.644;2022-12-16T17:21:09;0.60;99.90
16076;DHT22;8142;48.242;11.644;2022-12-16T17:23:53;0.60;99.90
16076;DHT22;8142;48.242;11.644;2022-12-16T17:26:41;0.80;99.90
16076;DHT22;8142;48.242;11.644;2022-12-16T17:29:26;0.70;99.90
16076;DHT22;8142;48.242;11.644;2022-12-16T17:32:11;0.70;99.90
16076;DHT22;8142;48.242;11.644;2022-12-16T17:34:56;0.70;99.90
16076;DHT22;8142;48.242;11.644;2022-12-16T17:37:42;0.70;99.90
16076;DHT22;8142;48.242;11.644;2022-12-16T17:40:27;0.70;99.90
16076;DHT22;8142;48.242;11.644;2022-12-16T17:43:12;0.70;99.90
16076;DHT22;8142;48.242;11.644;2022-12-16T17:46:00;0.70;99.90
16076;DHT22;8142;48.242;11.644;2022-12-16T17:48:50;0.70;99.90
16076;DHT22;8142;48.242;11.644;2022-12-16T17:51:34;0.70;99.90
16076;DHT22;8142;48.242;11.644;2022-12-16T17:54:19;0.70;99.90
16076;DHT22;8142;48.242;11.644;2022-12-16T17:57:03;0.70;99.90
16076;DHT22;8142;48.242;11.644;2022-12-16T17:59:48;0.70;99.90
16076;DHT22;8142;48.242;11.644;2022-12-16T18:02:32;0.70;99.90
16076;DHT22;8142;48.242;11.644;2022-12-16T18:05:16;0.70;99.90
16076;DHT22;8142;48.242;11.644;2022-12-16T18:08:01;0.70;99.90
16076;DHT22;8142;48.242;11.644;2022-12-16T18:10:49;0.60;99.90
16076;DHT22;8142;48.242;11.644;2022-12-16T18:13:34;0.50;99.90
16076;DHT22;8142;48.242;11.644;2022-12-16T18:16:18;0.40;99.90
16076;DHT22;8142;48.242;11.644;2022-12-16T18:19:03;0.20;99.90
16076;DHT22;8142;48.242;11.644;2022-12-16T18:21:47;0.10;99.90
16076;DHT22;8142;48.242;11.644;2022-12-16T18:24:32;0.00;99.90
16076;DHT22;8142;48.242;11.644;2022-12-16T18:27:16;-0.20;99.90
16076;DHT22;8142;48.242;11.644;2022-12-16T18:30:01;-0.20;99.90
16076;DHT22;8142;48.242;11.644;2022-12-16T18:32:45;-0.30;99.90
16076;DHT22;8142;48.242;11.644;2022-12-16T18:35:29;-0.30;99.90
16076;DHT22;8142;48.242;11.644;2022-12-16T18:38:14;-0.40;99.90
16076;DHT22;8142;48.242;11.644;2022-12-16T18:41:04;-0.50;99.90
16076;DHT22;8142;48.242;11.644;2022-12-16T18:43:49;-0.50;99.90
16076;DHT22;8142;48.242;11.644;2022-12-16T18:46:34;-0.60;99.90
16076;DHT22;8142;48.242;11.644;2022-12-16T18:49:19;-0.60;99.90
16076;DHT22;8142;48.242;11.644;2022-12-16T18:52:03;-0.60;99.90
16076;DHT22;8142;48.242;11.644;2022-12-16T18:54:48;-0.60;99.90
16076;DHT22;8142;48.242;11.644;2022-12-16T18:57:32;-0.60;99.90
16076;DHT22;8142;48.242;11.644;2022-12-16T19:00:17;-0.70;99.90
16076;DHT22;8142;48.242;11.644;2022-12-16T19:03:01;-0.70;99.90
16076;DHT22;8142;48.242;11.644;2022-12-16T19:05:55;-0.70;99.90
16076;DHT22;8142;48.242;11.644;2022-12-16T19:08:39;-0.70;99.90
16076;DHT22;8142;48.242;11.644;2022-12-16T19:11:24;-0.70;99.90
16076;DHT22;8142;48.242;11.644;2022-12-16T19:14:09;-0.70;99.90
16076;DHT22;8142;48.242;11.644;2022-12-16T19:16:54;-0.70;99.90
16076;DHT22;8142;48.242;11.644;2022-12-16T19:19:38;-0.70;99.90
16076;DHT22;8142;48.242;11.644;2022-12-16T19:22:22;-0.70;99.90
16076;DHT22;8142;48.242;11.644;2022-12-16T19:25:07;-0.70;99.90
16076;DHT22;8142;48.242;11.644;2022-12-16T19:27:51;-0.70;99.90
16076;DHT22;8142;48.242;11.644;2022-12-16T19:30:35;-0.70;99.90